createdAt,value
2023-01-18T00:03:20.247Z,82.36
2023-01-18T00:07:23.091Z,82.43
2023-01-18T00:11:26.075Z,82.33
2023-01-18T00:15:28.978Z,82.70
2023-01-18T00:19:33.731Z,82.97
2023-01-18T00:23:36.880Z,83.04
2023-01-18T00:27:44.297Z,82.87
2023-01-18T00:31:47.314Z,82.93
2023-01-18T00:36:01.590Z,83.66
2023-01-18T00:54:49.665Z,84.63
2023-01-18T00:58:54.057Z,83.95
2023-01-18T01:02:59.470Z,83.60
2023-01-18T01:07:05.263Z,83.15
2023-01-18T01:11:13.950Z,83.64
2023-01-18T01:15:35.395Z,83.88
2023-01-18T01:19:56.554Z,84.13
2023-01-18T01:24:18.134Z,83.42
2023-01-18T01:28:20.844Z,82.83
2023-01-18T01:32:23.650Z,82.45
2023-01-18T01:36:57.830Z,81.73
2023-01-18T01:41:07.336Z,80.72
2023-01-18T01:46:03.112Z,80.86
2023-01-18T01:50:38.573Z,81.44
2023-01-18T01:55:02.145Z,81.68
2023-01-18T01:59:07.410Z,82.49
2023-01-18T02:03:12.882Z,82.52
2023-01-18T02:07:42.957Z,82.38
2023-01-18T02:11:45.697Z,82.37
2023-01-18T02:15:54.731Z,82.71
2023-01-18T02:26:08.229Z,85.51
2023-01-18T02:30:43.977Z,86.63
2023-01-18T02:34:54.437Z,86.82
2023-01-18T02:39:06.948Z,86.80
2023-01-18T02:43:32.668Z,86.70
2023-01-18T02:47:36.616Z,87.13
2023-01-18T02:52:01.899Z,87.44
2023-01-18T02:56:28.349Z,87.30
2023-01-18T03:00:34.419Z,87.88
2023-01-18T03:04:45.609Z,87.65
2023-01-18T03:08:54.592Z,86.91
2023-01-18T03:13:06.489Z,86.62
2023-01-18T03:17:29.615Z,86.78
2023-01-18T03:21:49.411Z,86.81
2023-01-18T03:25:57.035Z,86.43
2023-01-18T03:30:24.926Z,85.51
2023-01-18T03:35:08.167Z,85.55
2023-01-18T03:39:20.855Z,85.64
2023-01-18T03:43:27.275Z,85.15
2023-01-18T03:47:32.390Z,85.17
2023-01-18T03:52:11.341Z,84.58
2023-01-18T03:56:28.430Z,84.61
2023-01-18T04:00:34.427Z,84.66
2023-01-18T04:13:43.477Z,85.55
2023-01-18T04:17:49.783Z,85.31
2023-01-18T04:21:52.573Z,85.39
2023-01-18T04:25:55.545Z,85.69
2023-01-18T04:29:58.738Z,85.65
2023-01-18T04:34:01.625Z,85.62
2023-01-18T04:38:04.513Z,85.77
2023-01-18T04:42:07.413Z,85.69
2023-01-18T04:46:10.225Z,85.54
2023-01-18T04:50:13.263Z,85.24
2023-01-18T04:54:18.690Z,85.32
2023-01-18T04:58:21.410Z,86.59
2023-01-18T05:02:24.381Z,86.68
2023-01-18T05:06:27.453Z,87.08
2023-01-18T05:10:30.640Z,87.04
2023-01-18T05:14:33.720Z,87.25
2023-01-18T05:18:36.622Z,87.59
2023-01-18T05:22:39.488Z,87.82
2023-01-18T05:26:42.228Z,88.22
2023-01-18T05:30:45.110Z,88.51
2023-01-18T05:34:48.109Z,89.14
2023-01-18T05:38:50.860Z,88.89
2023-01-18T05:42:53.959Z,89.14
2023-01-18T05:46:56.949Z,89.54
2023-01-18T05:50:59.749Z,89.34
2023-01-18T05:55:02.760Z,89.57
2023-01-18T05:59:06.026Z,89.77
2023-01-18T06:03:10.734Z,90.33
2023-01-18T06:07:15.139Z,90.85
2023-01-18T06:11:17.917Z,90.77
2023-01-18T06:15:20.854Z,90.83
2023-01-18T06:19:23.696Z,90.52
2023-01-18T06:23:27.705Z,90.00
2023-01-18T06:27:30.511Z,90.22
2023-01-18T06:45:52.428Z,89.79
2023-01-18T06:59:09.129Z,89.55
2023-01-18T07:03:12.115Z,89.31
2023-01-18T07:07:16.294Z,89.36
2023-01-18T07:11:19.409Z,89.28
2023-01-18T07:15:23.065Z,89.63
2023-01-18T07:19:26.202Z,89.48
2023-01-18T07:23:30.490Z,89.56
2023-01-18T07:27:33.478Z,90.14
2023-01-18T07:31:38.294Z,91.22
2023-01-18T07:35:41.178Z,91.95
2023-01-18T07:39:44.130Z,92.55
2023-01-18T07:43:47.348Z,93.73
2023-01-18T07:47:50.194Z,94.87
2023-01-18T07:51:53.224Z,95.43
2023-01-18T07:56:02.472Z,95.58
2023-01-18T08:00:07.322Z,95.60
2023-01-18T08:04:10.211Z,96.35
2023-01-18T08:08:16.394Z,96.80
2023-01-18T08:12:19.415Z,96.96
2023-01-18T08:16:22.485Z,97.08
2023-01-18T08:20:25.465Z,97.81
2023-01-18T08:24:31.415Z,97.99
2023-01-18T08:28:35.031Z,98.41
2023-01-18T08:32:38.028Z,98.87
2023-01-18T08:36:41.041Z,98.75
2023-01-18T08:40:44.023Z,98.53
2023-01-18T08:44:48.543Z,98.37
2023-01-18T08:48:53.538Z,98.11
2023-01-18T08:52:57.356Z,98.61
2023-01-18T08:57:02.287Z,99.74
2023-01-18T09:01:07.170Z,99.97
2023-01-18T09:05:10.492Z,100.00
2023-01-18T09:09:13.421Z,100.00
2023-01-18T09:13:16.255Z,100.00
2023-01-18T09:17:21.319Z,100.00
2023-01-18T09:21:24.399Z,100.00
2023-01-18T09:25:27.325Z,100.00
2023-01-18T09:29:31.593Z,100.00
2023-01-18T09:33:37.788Z,100.00
2023-01-18T09:37:41.124Z,100.00
2023-01-18T09:41:49.723Z,100.00
2023-01-18T09:45:53.618Z,100.00
2023-01-18T09:50:02.455Z,100.00
2023-01-18T09:54:11.702Z,99.91
2023-01-18T09:58:31.949Z,99.71
2023-01-18T10:02:39.451Z,99.32
2023-01-18T10:07:00.741Z,99.38
2023-01-18T10:11:12.494Z,99.01
2023-01-18T10:15:26.705Z,98.84
2023-01-18T10:19:32.021Z,98.25
2023-01-18T10:23:44.413Z,98.03
2023-01-18T10:28:04.122Z,98.01
2023-01-18T10:32:15.179Z,98.24
2023-01-18T10:36:20.806Z,98.45
2023-01-18T10:40:23.556Z,98.47
2023-01-18T10:44:26.451Z,98.58
2023-01-18T10:48:31.017Z,98.38
2023-01-18T10:52:34.138Z,98.29
2023-01-18T10:56:37.628Z,98.22
2023-01-18T11:00:40.879Z,98.03
2023-01-18T11:04:43.906Z,97.76
2023-01-18T11:08:48.749Z,97.85
2023-01-18T11:12:53.246Z,97.88
2023-01-18T11:17:10.982Z,97.98
2023-01-18T11:21:15.494Z,97.53
2023-01-18T11:25:18.456Z,96.86
2023-01-18T11:29:26.543Z,96.64
2023-01-18T11:33:31.420Z,96.57
2023-01-18T11:37:36.904Z,96.69
2023-01-18T11:41:39.953Z,96.34
2023-01-18T11:45:59.710Z,96.35
2023-01-18T11:50:21.981Z,95.43
2023-01-18T11:54:46.919Z,95.00
2023-01-18T11:58:49.982Z,95.10
2023-01-18T12:03:06.097Z,95.68
2023-01-18T12:07:21.642Z,95.36
2023-01-18T12:11:33.792Z,95.32
2023-01-18T12:15:53.529Z,95.25
2023-01-18T12:20:21.062Z,95.30
2023-01-18T12:24:53.609Z,95.58
2023-01-18T12:29:10.443Z,94.29
2023-01-18T12:33:43.878Z,94.24
2023-01-18T12:38:09.321Z,93.94
2023-01-18T12:42:40.475Z,94.06
2023-01-18T12:46:46.694Z,94.12
2023-01-18T12:50:51.150Z,93.73
2023-01-18T12:54:57.468Z,94.06
2023-01-18T12:59:08.357Z,94.60
2023-01-18T13:03:16.481Z,94.90
2023-01-18T13:07:25.606Z,95.36
2023-01-18T13:11:37.835Z,96.25
2023-01-18T13:15:49.463Z,96.60
2023-01-18T13:20:13.892Z,96.45
2023-01-18T13:24:42.987Z,96.09
2023-01-18T13:28:46.428Z,95.52
2023-01-18T13:32:49.629Z,95.54
2023-01-18T13:37:02.463Z,95.84
2023-01-18T13:41:23.332Z,97.26
2023-01-18T13:45:29.895Z,97.81
2023-01-18T13:49:38.609Z,97.46
2023-01-18T13:58:28.917Z,98.77
2023-01-18T14:02:43.354Z,99.41
2023-01-18T14:06:48.250Z,99.48
2023-01-18T14:11:04.534Z,99.62
2023-01-18T14:15:46.566Z,99.79
2023-01-18T14:19:49.571Z,99.63
2023-01-18T14:24:40.342Z,99.25
2023-01-18T14:28:49.492Z,98.87
2023-01-18T14:33:24.075Z,98.75
2023-01-18T14:37:35.643Z,98.67
2023-01-18T14:41:43.372Z,98.15
2023-01-18T14:45:54.037Z,97.60
2023-01-18T14:49:56.928Z,97.24
2023-01-18T14:54:02.913Z,96.79
2023-01-18T14:58:16.199Z,96.70
2023-01-18T15:02:24.821Z,96.53
2023-01-18T15:06:44.583Z,97.35
2023-01-18T15:10:48.518Z,97.55
2023-01-18T15:14:51.473Z,98.58
2023-01-18T15:19:03.094Z,97.74
2023-01-18T15:23:06.135Z,95.73
2023-01-18T15:27:15.553Z,95.35
2023-01-18T15:31:18.332Z,96.11
2023-01-18T15:35:25.618Z,96.20
2023-01-18T15:39:28.905Z,95.26
2023-01-18T15:43:33.589Z,95.16
2023-01-18T15:47:39.987Z,95.07
2023-01-18T15:51:52.701Z,95.01
2023-01-18T15:56:48.444Z,94.64
2023-01-18T16:01:17.148Z,94.87
2023-01-18T16:05:23.402Z,95.22
2023-01-18T16:09:26.597Z,95.63
2023-01-18T16:13:38.408Z,96.35
2023-01-18T16:17:43.873Z,96.97
2023-01-18T16:21:51.384Z,96.70
2023-01-18T16:26:03.686Z,96.62
2023-01-18T16:30:20.099Z,96.47
2023-01-18T16:34:25.707Z,96.55
2023-01-18T16:38:28.613Z,97.04
2023-01-18T16:42:38.416Z,97.16
2023-01-18T16:46:41.496Z,98.10
2023-01-18T16:50:45.208Z,98.51
2023-01-18T16:54:48.013Z,99.28
2023-01-18T16:58:55.087Z,99.89
2023-01-18T17:02:57.932Z,99.18
2023-01-18T17:07:01.042Z,98.84
2023-01-18T17:11:04.428Z,98.75
2023-01-18T17:15:07.757Z,99.41
2023-01-18T17:19:15.000Z,99.98
2023-01-18T17:23:22.943Z,99.84
2023-01-18T17:27:25.738Z,100.00
2023-01-18T17:31:28.913Z,100.00
2023-01-18T17:35:32.142Z,100.00
2023-01-18T17:39:43.333Z,100.00
2023-01-18T17:43:53.741Z,100.00
2023-01-18T17:47:56.572Z,100.00
2023-01-18T17:51:59.341Z,100.00
2023-01-18T17:56:09.503Z,100.00
2023-01-18T18:00:14.249Z,100.00
2023-01-18T18:04:33.375Z,100.00
2023-01-18T18:08:37.030Z,100.00
2023-01-18T18:12:39.829Z,100.00
2023-01-18T18:16:44.604Z,100.00
2023-01-18T18:20:47.494Z,100.00
2023-01-18T18:24:51.891Z,100.00
2023-01-18T18:28:54.670Z,100.00
2023-01-18T18:32:58.098Z,100.00
2023-01-18T18:37:01.784Z,100.00
2023-01-18T18:41:07.387Z,100.00
2023-01-18T18:45:10.603Z,100.00
2023-01-18T18:49:15.876Z,100.00
2023-01-18T18:53:21.437Z,100.00
2023-01-18T18:57:28.999Z,100.00
2023-01-18T19:01:32.124Z,100.00
2023-01-18T19:05:35.974Z,100.00
2023-01-18T19:09:39.097Z,100.00
2023-01-18T19:13:43.104Z,100.00
2023-01-18T19:17:50.419Z,100.00
2023-01-18T19:21:53.248Z,100.00
2023-01-18T19:26:11.805Z,100.00
2023-01-18T19:30:18.169Z,100.00
2023-01-18T19:34:21.984Z,100.00
2023-01-18T19:38:25.191Z,100.00
2023-01-18T19:42:29.231Z,100.00
2023-01-18T19:46:34.149Z,100.00
2023-01-18T19:50:37.283Z,100.00
2023-01-18T19:54:41.254Z,100.00
2023-01-18T19:58:44.634Z,100.00
2023-01-18T20:02:47.461Z,100.00
2023-01-18T20:06:50.544Z,100.00
2023-01-18T20:10:53.365Z,100.00
2023-01-18T20:14:56.352Z,100.00
2023-01-18T20:18:59.140Z,100.00
2023-01-18T20:23:03.338Z,100.00
2023-01-18T20:27:15.825Z,100.00
2023-01-18T20:31:20.569Z,100.00
2023-01-18T20:35:23.531Z,100.00
2023-01-18T20:39:27.479Z,100.00
2023-01-18T20:43:30.622Z,100.00
2023-01-18T20:47:33.373Z,100.00
2023-01-18T20:51:36.250Z,100.00
2023-01-18T20:55:39.943Z,100.00
2023-01-18T20:59:42.684Z,100.00
2023-01-18T21:03:47.329Z,100.00
2023-01-18T21:07:50.230Z,100.00
2023-01-18T21:12:18.193Z,100.00
2023-01-18T21:16:22.062Z,100.00
2023-01-18T21:20:24.841Z,100.00
2023-01-18T21:24:27.595Z,100.00
2023-01-18T21:29:01.131Z,99.08
2023-01-18T21:33:03.864Z,97.41
2023-01-18T21:37:58.091Z,97.47
2023-01-18T21:42:39.847Z,98.83
2023-01-18T21:46:51.285Z,99.54
2023-01-18T21:51:15.470Z,99.85
2023-01-18T21:55:18.557Z,100.00
2023-01-18T21:59:21.360Z,100.00
2023-01-18T22:03:24.132Z,100.00
2023-01-18T22:07:30.275Z,100.00
2023-01-18T22:11:33.143Z,100.00
2023-01-18T22:15:40.424Z,100.00
2023-01-18T22:19:44.029Z,100.00
2023-01-18T22:23:46.784Z,100.00
2023-01-18T22:27:49.600Z,100.00
2023-01-18T22:31:56.055Z,100.00
2023-01-18T22:36:00.226Z,100.00
2023-01-18T22:40:03.590Z,100.00
2023-01-18T22:44:06.569Z,100.00
2023-01-18T22:48:11.474Z,99.95
2023-01-18T22:52:14.440Z,99.45
2023-01-18T22:56:19.859Z,99.10
2023-01-18T23:00:24.560Z,99.63
2023-01-18T23:04:29.491Z,99.86
2023-01-18T23:08:44.634Z,99.91
2023-01-18T23:12:47.495Z,100.00
2023-01-18T23:21:29.609Z,100.00
2023-01-18T23:25:33.604Z,99.86
2023-01-18T23:29:36.724Z,98.32
2023-01-18T23:33:39.919Z,97.10
2023-01-18T23:37:42.709Z,96.51
2023-01-18T23:42:04.187Z,95.82
2023-01-18T23:46:25.993Z,95.35
2023-01-18T23:50:47.419Z,95.86
2023-01-18T23:54:50.153Z,97.79
2023-01-18T23:58:54.826Z,99.84
